sensor_id;sensor_type;location;lat;lon;timestamp;temperature;humidity
15013;DHT22;7603;49.432;11.418;2024-03-06T00:01:37;7.40;99.90
15013;DHT22;7603;49.432;11.418;2024-03-06T00:04:03;7.40;99.90
15013;DHT22;7603;49.432;11.418;2024-03-06T00:06:29;7.40;99.90
15013;DHT22;7603;49.432;11.418;2024-03-06T00:08:56;7.40;99.90
15013;DHT22;7603;49.432;11.418;2024-03-06T00:11:21;7.40;99.90
15013;DHT22;7603;49.432;11.418;2024-03-06T00:13:47;7.40;99.90
15013;DHT22;7603;49.432;11.418;2024-03-06T00:16:13;7.40;99.90
15013;DHT22;7603;49.432;11.418;2024-03-06T00:18:39;7.40;99.90
15013;DHT22;7603;49.432;11.418;2024-03-06T00:21:05;7.40;99.90
15013;DHT22;7603;49.432;11.418;2024-03-06T00:23:32;7.40;99.90
15013;DHT22;7603;49.432;11.418;2024-03-06T00:25:57;7.50;99.90
15013;DHT22;7603;49.432;11.418;2024-03-06T00:28:23;7.50;99.90
15013;DHT22;7603;49.432;11.418;2024-03-06T00:30:49;7.50;99.90
15013;DHT22;7603;49.432;11.418;2024-03-06T00:33:15;7.50;99.90
15013;DHT22;7603;49.432;11.418;2024-03-06T00:35:41;7.50;99.90
15013;DHT22;7603;49.432;11.418;2024-03-06T00:38:06;7.50;99.90
15013;DHT22;7603;49.432;11.418;2024-03-06T00:40:32;7.50;99.90
15013;DHT22;7603;49.432;11.418;2024-03-06T00:42:58;7.50;99.90
15013;DHT22;7603;49.432;11.418;2024-03-06T00:45:24;7.50;99.90
15013;DHT22;7603;49.432;11.418;2024-03-06T00:47:50;7.60;99.90
15013;DHT22;7603;49.432;11.418;2024-03-06T00:50:15;7.60;99.90
15013;DHT22;7603;49.432;11.418;2024-03-06T00:52:44;7.60;99.90
15013;DHT22;7603;49.432;11.418;2024-03-06T00:55:10;7.60;99.90
15013;DHT22;7603;49.432;11.418;2024-03-06T00:57:36;7.60;99.90
15013;DHT22;7603;49.432;11.418;2024-03-06T01:00:03;7.60;99.90
15013;DHT22;7603;49.432;11.418;2024-03-06T01:02:39;7.60;99.90
15013;DHT22;7603;49.432;11.418;2024-03-06T01:05:05;7.60;99.90
15013;DHT22;7603;49.432;11.418;2024-03-06T01:07:33;7.50;99.90
15013;DHT22;7603;49.432;11.418;2024-03-06T01:10:00;7.50;99.90
15013;DHT22;7603;49.432;11.418;2024-03-06T01:12:26;7.50;99.90
15013;DHT22;7603;49.432;11.418;2024-03-06T01:14:52;7.40;99.90
15013;DHT22;7603;49.432;11.418;2024-03-06T01:17:18;7.40;99.90
15013;DHT22;7603;49.432;11.418;2024-03-06T01:19:44;7.40;99.90
15013;DHT22;7603;49.432;11.418;2024-03-06T01:22:10;7.30;99.90
15013;DHT22;7603;49.432;11.418;2024-03-06T01:24:36;7.40;99.90
15013;DHT22;7603;49.432;11.418;2024-03-06T01:27:01;7.40;99.90
15013;DHT22;7603;49.432;11.418;2024-03-06T01:29:28;7.40;99.90
15013;DHT22;7603;49.432;11.418;2024-03-06T01:31:54;7.40;99.90
15013;DHT22;7603;49.432;11.418;2024-03-06T01:34:20;7.40;99.90
15013;DHT22;7603;49.432;11.418;2024-03-06T01:36:45;7.40;99.90
15013;DHT22;7603;49.432;11.418;2024-03-06T01:39:11;7.40;99.90
15013;DHT22;7603;49.432;11.418;2024-03-06T01:41:37;7.40;99.90
15013;DHT22;7603;49.432;11.418;2024-03-06T01:44:03;7.40;99.90
15013;DHT22;7603;49.432;11.418;2024-03-06T01:46:31;7.50;99.90
15013;DHT22;7603;49.432;11.418;2024-03-06T01:48:57;7.50;99.90
15013;DHT22;7603;49.432;11.418;2024-03-06T01:51:22;7.50;99.90
15013;DHT22;7603;49.432;11.418;2024-03-06T01:53:50;7.40;99.90
15013;DHT22;7603;49.432;11.418;2024-03-06T01:56:17;7.50;99.90
15013;DHT22;7603;49.432;11.418;2024-03-06T01:58:45;7.50;99.90
15013;DHT22;7603;49.432;11.418;2024-03-06T02:01:12;7.50;99.90
15013;DHT22;7603;49.432;11.418;2024-03-06T02:03:38;7.40;99.90
15013;DHT22;7603;49.432;11.418;2024-03-06T02:06:04;7.40;99.90
15013;DHT22;7603;49.432;11.418;2024-03-06T02:08:30;7.40;99.90
15013;DHT22;7603;49.432;11.418;2024-03-06T02:10:57;7.30;99.90
15013;DHT22;7603;49.432;11.418;2024-03-06T02:13:25;7.30;99.90
15013;DHT22;7603;49.432;11.418;2024-03-06T02:15:51;7.30;99.90
15013;DHT22;7603;49.432;11.418;2024-03-06T02:18:17;7.30;99.90
15013;DHT22;7603;49.432;11.418;2024-03-06T02:20:42;7.30;99.90
15013;DHT22;7603;49.432;11.418;2024-03-06T02:23:08;7.30;99.90
15013;DHT22;7603;49.432;11.418;2024-03-06T02:25:33;7.30;99.90
15013;DHT22;7603;49.432;11.418;2024-03-06T02:27:59;7.30;99.90
15013;DHT22;7603;49.432;11.418;2024-03-06T02:30:25;7.30;99.90
15013;DHT22;7603;49.432;11.418;2024-03-06T02:32:50;7.30;99.90
15013;DHT22;7603;49.432;11.418;2024-03-06T02:35:16;7.30;99.90
15013;DHT22;7603;49.432;11.418;2024-03-06T02:37:43;7.30;99.90
15013;DHT22;7603;49.432;11.418;2024-03-06T02:40:10;7.30;99.90
15013;DHT22;7603;49.432;11.418;2024-03-06T02:42:36;7.30;99.90
15013;DHT22;7603;49.432;11.418;2024-03-06T02:45:06;7.30;99.90
15013;DHT22;7603;49.432;11.418;2024-03-06T02:47:32;7.30;99.90
15013;DHT22;7603;49.432;11.418;2024-03-06T02:49:59;7.30;99.90
15013;DHT22;7603;49.432;11.418;2024-03-06T02:52:25;7.30;99.90
15013;DHT22;7603;49.432;11.418;2024-03-06T02:54:50;7.30;99.90
15013;DHT22;7603;49.432;11.418;2024-03-06T02:57:16;7.30;99.90
15013;DHT22;7603;49.432;11.418;2024-03-06T02:59:42;7.30;99.90
15013;DHT22;7603;49.432;11.418;2024-03-06T03:02:08;7.30;99.90
15013;DHT22;7603;49.432;11.418;2024-03-06T03:04:34;7.30;99.90
15013;DHT22;7603;49.432;11.418;2024-03-06T03:06:59;7.30;99.90
15013;DHT22;7603;49.432;11.418;2024-03-06T03:09:25;7.30;99.90
15013;DHT22;7603;49.432;11.418;2024-03-06T03:11:50;7.40;99.90
15013;DHT22;7603;49.432;11.418;2024-03-06T03:14:16;7.30;99.90
15013;DHT22;7603;49.432;11.418;2024-03-06T03:16:42;7.30;99.90
15013;DHT22;7603;49.432;11.418;2024-03-06T03:19:08;7.30;99.90
15013;DHT22;7603;49.432;11.418;2024-03-06T03:21:34;7.30;99.90
15013;DHT22;7603;49.432;11.418;2024-03-06T03:23:59;7.30;99.90
15013;DHT22;7603;49.432;11.418;2024-03-06T03:26:25;7.30;99.90
15013;DHT22;7603;49.432;11.418;2024-03-06T03:28:51;7.30;99.90
15013;DHT22;7603;49.432;11.418;2024-03-06T03:31:17;7.20;99.90
15013;DHT22;7603;49.432;11.418;2024-03-06T03:33:42;7.20;99.90
15013;DHT22;7603;49.432;11.418;2024-03-06T03:36:09;7.20;99.90
15013;DHT22;7603;49.432;11.418;2024-03-06T03:38:38;7.10;99.90
15013;DHT22;7603;49.432;11.418;2024-03-06T03:41:10;7.10;99.90
15013;DHT22;7603;49.432;11.418;2024-03-06T03:43:35;7.10;99.90
15013;DHT22;7603;49.432;11.418;2024-03-06T03:46:01;7.10;99.90
15013;DHT22;7603;49.432;11.418;2024-03-06T03:48:27;7.10;99.90
15013;DHT22;7603;49.432;11.418;2024-03-06T03:50:53;7.20;99.90
15013;DHT22;7603;49.432;11.418;2024-03-06T03:53:18;7.20;99.90
15013;DHT22;7603;49.432;11.418;2024-03-06T03:55:44;7.20;99.90
15013;DHT22;7603;49.432;11.418;2024-03-06T03:58:10;7.20;99.90
15013;DHT22;7603;49.432;11.418;2024-03-06T04:00:35;7.20;99.90
15013;DHT22;7603;49.432;11.418;2024-03-06T04:03:03;7.20;99.90
15013;DHT22;7603;49.432;11.418;2024-03-06T04:05:29;7.20;99.90
15013;DHT22;7603;49.432;11.418;2024-03-06T04:07:54;7.30;99.90
15013;DHT22;7603;49.432;11.418;2024-03-06T04:10:21;7.30;99.90
15013;DHT22;7603;49.432;11.418;2024-03-06T04:12:46;7.30;99.90
15013;DHT22;7603;49.432;11.418;2024-03-06T04:15:12;7.30;99.90
15013;DHT22;7603;49.432;11.418;2024-03-06T04:17:37;7.30;99.90
15013;DHT22;7603;49.432;11.418;2024-03-06T04:20:03;7.40;99.90
15013;DHT22;7603;49.432;11.418;2024-03-06T04:22:31;7.40;99.90
15013;DHT22;7603;49.432;11.418;2024-03-06T04:24:57;7.40;99.90
15013;DHT22;7603;49.432;11.418;2024-03-06T04:27:25;7.30;99.90
15013;DHT22;7603;49.432;11.418;2024-03-06T04:29:51;7.30;99.90
15013;DHT22;7603;49.432;11.418;2024-03-06T04:32:18;7.30;99.90
15013;DHT22;7603;49.432;11.418;2024-03-06T04:34:43;7.30;99.90
15013;DHT22;7603;49.432;11.418;2024-03-06T04:37:09;7.30;99.90
15013;DHT22;7603;49.432;11.418;2024-03-06T04:39:34;7.30;99.90
15013;DHT22;7603;49.432;11.418;2024-03-06T04:42:00;7.40;99.90
15013;DHT22;7603;49.432;11.418;2024-03-06T04:44:26;7.40;99.90
15013;DHT22;7603;49.432;11.418;2024-03-06T04:46:51;7.40;99.90
15013;DHT22;7603;49.432;11.418;2024-03-06T04:49:17;7.40;99.90
15013;DHT22;7603;49.432;11.418;2024-03-06T04:51:43;7.40;99.90
15013;DHT22;7603;49.432;11.418;2024-03-06T04:54:08;7.40;99.90
15013;DHT22;7603;49.432;11.418;2024-03-06T04:56:34;7.40;99.90
15013;DHT22;7603;49.432;11.418;2024-03-06T04:58:59;7.40;99.90
15013;DHT22;7603;49.432;11.418;2024-03-06T05:01:29;7.40;99.90
15013;DHT22;7603;49.432;11.418;2024-03-06T05:03:55;7.40;99.90
15013;DHT22;7603;49.432;11.418;2024-03-06T05:06:22;7.40;99.90
15013;DHT22;7603;49.432;11.418;2024-03-06T05:08:48;7.40;99.90
15013;DHT22;7603;49.432;11.418;2024-03-06T05:11:14;7.40;99.90
15013;DHT22;7603;49.432;11.418;2024-03-06T05:13:39;7.40;99.90
15013;DHT22;7603;49.432;11.418;2024-03-06T05:16:06;7.30;99.90
15013;DHT22;7603;49.432;11.418;2024-03-06T05:18:34;7.30;99.90
15013;DHT22;7603;49.432;11.418;2024-03-06T05:21:00;7.40;99.90
15013;DHT22;7603;49.432;11.418;2024-03-06T05:23:25;7.40;99.90
15013;DHT22;7603;49.432;11.418;2024-03-06T05:25:51;7.40;99.90
15013;DHT22;7603;49.432;11.418;2024-03-06T05:28:17;7.40;99.90
15013;DHT22;7603;49.432;11.418;2024-03-06T05:30:42;7.40;99.90
15013;DHT22;7603;49.432;11.418;2024-03-06T05:33:08;7.40;99.90
15013;DHT22;7603;49.432;11.418;2024-03-06T05:35:33;7.40;99.90
15013;DHT22;7603;49.432;11.418;2024-03-06T05:37:59;7.30;99.90
15013;DHT22;7603;49.432;11.418;2024-03-06T05:40:25;7.30;99.90
15013;DHT22;7603;49.432;11.418;2024-03-06T05:42:50;7.30;99.90
15013;DHT22;7603;49.432;11.418;2024-03-06T05:45:16;7.20;99.90
15013;DHT22;7603;49.432;11.418;2024-03-06T05:47:42;7.20;99.90
15013;DHT22;7603;49.432;11.418;2024-03-06T05:50:08;7.10;99.90
15013;DHT22;7603;49.432;11.418;2024-03-06T05:52:36;7.10;99.90
15013;DHT22;7603;49.432;11.418;2024-03-06T05:55:02;7.00;99.90
15013;DHT22;7603;49.432;11.418;2024-03-06T05:57:31;7.00;99.90
15013;DHT22;7603;49.432;11.418;2024-03-06T05:59:57;6.90;99.90
15013;DHT22;7603;49.432;11.418;2024-03-06T06:02:23;6.90;99.90
15013;DHT22;7603;49.432;11.418;2024-03-06T06:04:49;6.90;99.90
15013;DHT22;7603;49.432;11.418;2024-03-06T06:07:15;6.80;99.90
15013;DHT22;7603;49.432;11.418;2024-03-06T06:09:41;6.90;99.90
15013;DHT22;7603;49.432;11.418;2024-03-06T06:12:06;6.90;99.90
15013;DHT22;7603;49.432;11.418;2024-03-06T06:14:32;6.90;99.90
15013;DHT22;7603;49.432;11.418;2024-03-06T06:16:58;7.00;99.90
15013;DHT22;7603;49.432;11.418;2024-03-06T06:19:23;7.10;99.90
15013;DHT22;7603;49.432;11.418;2024-03-06T06:21:50;7.20;99.90
15013;DHT22;7603;49.432;11.418;2024-03-06T06:24:16;7.30;99.90
15013;DHT22;7603;49.432;11.418;2024-03-06T06:26:42;7.40;99.90
15013;DHT22;7603;49.432;11.418;2024-03-06T06:29:08;7.50;99.90
15013;DHT22;7603;49.432;11.418;2024-03-06T06:31:33;7.60;99.90
15013;DHT22;7603;49.432;11.418;2024-03-06T06:33:59;7.70;99.90
15013;DHT22;7603;49.432;11.418;2024-03-06T06:36:26;7.80;99.90
15013;DHT22;7603;49.432;11.418;2024-03-06T06:38:53;7.80;99.90
15013;DHT22;7603;49.432;11.418;2024-03-06T06:41:18;7.80;99.90
15013;DHT22;7603;49.432;11.418;2024-03-06T06:43:45;7.90;99.90
15013;DHT22;7603;49.432;11.418;2024-03-06T06:46:11;7.90;99.90
15013;DHT22;7603;49.432;11.418;2024-03-06T06:48:36;8.00;99.90
15013;DHT22;7603;49.432;11.418;2024-03-06T06:51:03;8.10;99.90
15013;DHT22;7603;49.432;11.418;2024-03-06T06:53:32;8.20;99.90
15013;DHT22;7603;49.432;11.418;2024-03-06T06:55:58;8.30;99.90
15013;DHT22;7603;49.432;11.418;2024-03-06T06:58:24;8.30;99.90
15013;DHT22;7603;49.432;11.418;2024-03-06T07:00:49;8.30;99.90
15013;DHT22;7603;49.432;11.418;2024-03-06T07:03:16;8.40;99.90
15013;DHT22;7603;49.432;11.418;2024-03-06T07:05:41;8.40;99.90
15013;DHT22;7603;49.432;11.418;2024-03-06T07:08:08;8.50;99.90
15013;DHT22;7603;49.432;11.418;2024-03-06T07:10:33;8.60;99.90
15013;DHT22;7603;49.432;11.418;2024-03-06T07:13:01;8.60;99.90
15013;DHT22;7603;49.432;11.418;2024-03-06T07:15:28;8.60;99.90
15013;DHT22;7603;49.432;11.418;2024-03-06T07:17:54;8.70;99.90
15013;DHT22;7603;49.432;11.418;2024-03-06T07:20:19;8.80;99.90
15013;DHT22;7603;49.432;11.418;2024-03-06T07:22:45;8.80;99.90
15013;DHT22;7603;49.432;11.418;2024-03-06T07:25:11;8.80;99.90
15013;DHT22;7603;49.432;11.418;2024-03-06T07:27:36;8.80;99.90
15013;DHT22;7603;49.432;11.418;2024-03-06T07:30:02;8.70;99.90
15013;DHT22;7603;49.432;11.418;2024-03-06T07:32:28;8.70;99.90
15013;DHT22;7603;49.432;11.418;2024-03-06T07:34:53;8.60;99.90
15013;DHT22;7603;49.432;11.418;2024-03-06T07:37:19;8.60;99.90
15013;DHT22;7603;49.432;11.418;2024-03-06T07:39:45;8.60;99.90
15013;DHT22;7603;49.432;11.418;2024-03-06T07:42:11;8.60;99.90
15013;DHT22;7603;49.432;11.418;2024-03-06T07:44:36;8.70;99.90
15013;DHT22;7603;49.432;11.418;2024-03-06T07:47:02;8.80;99.90
15013;DHT22;7603;49.432;11.418;2024-03-06T07:49:29;8.90;99.90
15013;DHT22;7603;49.432;11.418;2024-03-06T07:51:54;9.20;99.90
15013;DHT22;7603;49.432;11.418;2024-03-06T07:54:20;9.40;99.90
15013;DHT22;7603;49.432;11.418;2024-03-06T07:56:46;9.50;99.90
15013;DHT22;7603;49.432;11.418;2024-03-06T07:59:12;9.70;99.90
15013;DHT22;7603;49.432;11.418;2024-03-06T08:01:39;9.90;99.90
15013;DHT22;7603;49.432;11.418;2024-03-06T08:04:04;10.00;99.90
15013;DHT22;7603;49.432;11.418;2024-03-06T08:06:30;10.10;99.90
15013;DHT22;7603;49.432;11.418;2024-03-06T08:08:58;10.20;99.90
15013;DHT22;7603;49.432;11.418;2024-03-06T08:11:24;10.40;99.90
15013;DHT22;7603;49.432;11.418;2024-03-06T08:13:56;10.50;99.90
15013;DHT22;7603;49.432;11.418;2024-03-06T08:16:22;10.70;99.90
15013;DHT22;7603;49.432;11.418;2024-03-06T08:18:47;10.90;99.90
15013;DHT22;7603;49.432;11.418;2024-03-06T08:21:13;11.10;99.90
15013;DHT22;7603;49.432;11.418;2024-03-06T08:23:39;11.30;99.90
15013;DHT22;7603;49.432;11.418;2024-03-06T08:26:04;11.40;99.90
15013;DHT22;7603;49.432;11.418;2024-03-06T08:28:30;11.40;99.90
15013;DHT22;7603;49.432;11.418;2024-03-06T08:30:56;11.40;99.90
15013;DHT22;7603;49.432;11.418;2024-03-06T08:33:21;11.30;99.90
15013;DHT22;7603;49.432;11.418;2024-03-06T08:35:48;11.30;99.90
15013;DHT22;7603;49.432;11.418;2024-03-06T08:38:14;11.20;99.90
15013;DHT22;7603;49.432;11.418;2024-03-06T08:40:39;11.20;99.90
15013;DHT22;7603;49.432;11.418;2024-03-06T08:43:07;11.10;99.90
15013;DHT22;7603;49.432;11.418;2024-03-06T08:45:34;11.00;99.90
15013;DHT22;7603;49.432;11.418;2024-03-06T08:48:00;10.80;99.90
15013;DHT22;7603;49.432;11.418;2024-03-06T08:50:25;10.50;99.90
15013;DHT22;7603;49.432;11.418;2024-03-06T08:52:51;10.30;99.90
15013;DHT22;7603;49.432;11.418;2024-03-06T08:55:17;10.10;99.90
15013;DHT22;7603;49.432;11.418;2024-03-06T08:57:43;10.00;99.90
15013;DHT22;7603;49.432;11.418;2024-03-06T09:00:09;9.90;99.90
15013;DHT22;7603;49.432;11.418;2024-03-06T09:02:37;9.80;99.90
15013;DHT22;7603;49.432;11.418;2024-03-06T09:05:07;9.70;99.90
15013;DHT22;7603;49.432;11.418;2024-03-06T09:07:38;9.80;99.90
15013;DHT22;7603;49.432;11.418;2024-03-06T09:10:07;9.80;99.90
15013;DHT22;7603;49.432;11.418;2024-03-06T09:12:33;10.10;99.90
15013;DHT22;7603;49.432;11.418;2024-03-06T09:14:59;10.70;99.90
15013;DHT22;7603;49.432;11.418;2024-03-06T09:17:27;11.60;99.90
15013;DHT22;7603;49.432;11.418;2024-03-06T09:19:54;12.50;99.90
15013;DHT22;7603;49.432;11.418;2024-03-06T09:22:20;13.30;99.90
15013;DHT22;7603;49.432;11.418;2024-03-06T09:24:45;14.10;99.90
15013;DHT22;7603;49.432;11.418;2024-03-06T09:27:11;14.70;99.90
15013;DHT22;7603;49.432;11.418;2024-03-06T09:29:37;15.10;99.90
15013;DHT22;7603;49.432;11.418;2024-03-06T09:32:03;15.30;99.90
15013;DHT22;7603;49.432;11.418;2024-03-06T09:34:29;15.50;99.90
15013;DHT22;7603;49.432;11.418;2024-03-06T09:36:54;15.70;99.70
15013;DHT22;7603;49.432;11.418;2024-03-06T09:39:20;16.00;99.50
15013;DHT22;7603;49.432;11.418;2024-03-06T09:41:49;16.40;98.50
15013;DHT22;7603;49.432;11.418;2024-03-06T09:44:16;17.10;96.70
15013;DHT22;7603;49.432;11.418;2024-03-06T09:46:47;18.10;94.70
15013;DHT22;7603;49.432;11.418;2024-03-06T09:49:17;19.00;91.50
15013;DHT22;7603;49.432;11.418;2024-03-06T09:51:49;19.80;89.80
15013;DHT22;7603;49.432;11.418;2024-03-06T09:54:16;20.60;80.10
15013;DHT22;7603;49.432;11.418;2024-03-06T09:56:46;21.20;76.30
15013;DHT22;7603;49.432;11.418;2024-03-06T09:59:12;21.30;69.30
15013;DHT22;7603;49.432;11.418;2024-03-06T10:01:49;21.10;68.90
15013;DHT22;7603;49.432;11.418;2024-03-06T10:06:46;19.90;67.90
15013;DHT22;7603;49.432;11.418;2024-03-06T10:09:12;19.40;68.30
15013;DHT22;7603;49.432;11.418;2024-03-06T10:11:41;19.00;69.00
15013;DHT22;7603;49.432;11.418;2024-03-06T10:14:08;18.70;70.00
15013;DHT22;7603;49.432;11.418;2024-03-06T10:16:35;18.40;69.60
15013;DHT22;7603;49.432;11.418;2024-03-06T10:19:17;18.10;69.70
15013;DHT22;7603;49.432;11.418;2024-03-06T10:21:44;17.70;70.30
15013;DHT22;7603;49.432;11.418;2024-03-06T10:24:11;17.30;71.60
15013;DHT22;7603;49.432;11.418;2024-03-06T10:26:38;16.90;72.30
15013;DHT22;7603;49.432;11.418;2024-03-06T10:29:03;16.50;73.50
15013;DHT22;7603;49.432;11.418;2024-03-06T10:31:29;16.10;74.80
15013;DHT22;7603;49.432;11.418;2024-03-06T10:33:55;15.80;75.70
15013;DHT22;7603;49.432;11.418;2024-03-06T10:36:20;15.50;77.30
15013;DHT22;7603;49.432;11.418;2024-03-06T10:38:48;15.30;78.00
15013;DHT22;7603;49.432;11.418;2024-03-06T10:41:19;15.00;79.20
15013;DHT22;7603;49.432;11.418;2024-03-06T10:43:50;14.70;80.10
15013;DHT22;7603;49.432;11.418;2024-03-06T10:46:20;14.40;80.70
15013;DHT22;7603;49.432;11.418;2024-03-06T10:48:47;14.20;81.60
15013;DHT22;7603;49.432;11.418;2024-03-06T10:51:16;13.90;82.60
15013;DHT22;7603;49.432;11.418;2024-03-06T10:53:42;13.60;83.50
15013;DHT22;7603;49.432;11.418;2024-03-06T10:56:08;13.30;84.80
15013;DHT22;7603;49.432;11.418;2024-03-06T10:58:35;13.10;86.70
15013;DHT22;7603;49.432;11.418;2024-03-06T11:01:03;12.90;87.20
15013;DHT22;7603;49.432;11.418;2024-03-06T11:03:29;12.70;87.90
15013;DHT22;7603;49.432;11.418;2024-03-06T11:05:57;12.80;88.70
15013;DHT22;7603;49.432;11.418;2024-03-06T11:08:22;12.90;89.40
15013;DHT22;7603;49.432;11.418;2024-03-06T11:10:49;13.20;89.00
15013;DHT22;7603;49.432;11.418;2024-03-06T11:13:24;13.40;88.50
15013;DHT22;7603;49.432;11.418;2024-03-06T11:15:57;13.50;88.20
15013;DHT22;7603;49.432;11.418;2024-03-06T11:23:30;13.70;86.80
15013;DHT22;7603;49.432;11.418;2024-03-06T11:26:05;13.60;86.10
15013;DHT22;7603;49.432;11.418;2024-03-06T11:28:32;13.50;86.30
15013;DHT22;7603;49.432;11.418;2024-03-06T11:31:06;13.40;86.60
15013;DHT22;7603;49.432;11.418;2024-03-06T11:33:42;13.30;87.30
15013;DHT22;7603;49.432;11.418;2024-03-06T11:36:24;13.20;86.20
15013;DHT22;7603;49.432;11.418;2024-03-06T11:38:59;13.10;85.90
15013;DHT22;7603;49.432;11.418;2024-03-06T11:41:30;13.00;85.80
15013;DHT22;7603;49.432;11.418;2024-03-06T11:43:59;13.00;85.90
15013;DHT22;7603;49.432;11.418;2024-03-06T11:46:49;13.00;86.40
15013;DHT22;7603;49.432;11.418;2024-03-06T11:49:20;13.10;85.70
15013;DHT22;7603;49.432;11.418;2024-03-06T11:52:00;13.20;85.70
15013;DHT22;7603;49.432;11.418;2024-03-06T11:54:26;13.30;85.40
15013;DHT22;7603;49.432;11.418;2024-03-06T11:56:55;13.30;85.70
15013;DHT22;7603;49.432;11.418;2024-03-06T12:01:58;13.30;84.80
15013;DHT22;7603;49.432;11.418;2024-03-06T12:04:27;13.30;84.80
15013;DHT22;7603;49.432;11.418;2024-03-06T12:06:56;13.30;84.50
15013;DHT22;7603;49.432;11.418;2024-03-06T12:09:21;13.30;85.10
15013;DHT22;7603;49.432;11.418;2024-03-06T12:11:47;13.40;85.00
15013;DHT22;7603;49.432;11.418;2024-03-06T12:14:14;13.40;84.40
15013;DHT22;7603;49.432;11.418;2024-03-06T12:16:42;13.40;83.80
15013;DHT22;7603;49.432;11.418;2024-03-06T12:19:08;13.30;83.80
15013;DHT22;7603;49.432;11.418;2024-03-06T12:21:35;13.30;84.00
15013;DHT22;7603;49.432;11.418;2024-03-06T12:24:05;13.30;83.70
15013;DHT22;7603;49.432;11.418;2024-03-06T12:26:30;13.10;83.50
15013;DHT22;7603;49.432;11.418;2024-03-06T12:29:10;13.10;84.20
15013;DHT22;7603;49.432;11.418;2024-03-06T12:31:38;13.10;84.30
15013;DHT22;7603;49.432;11.418;2024-03-06T12:34:05;13.10;85.10
15013;DHT22;7603;49.432;11.418;2024-03-06T12:36:32;13.10;85.00
15013;DHT22;7603;49.432;11.418;2024-03-06T12:39:03;13.30;84.30
15013;DHT22;7603;49.432;11.418;2024-03-06T12:41:29;13.40;84.00
15013;DHT22;7603;49.432;11.418;2024-03-06T12:43:55;13.60;83.80
15013;DHT22;7603;49.432;11.418;2024-03-06T12:46:22;13.70;83.40
15013;DHT22;7603;49.432;11.418;2024-03-06T12:48:48;13.80;82.80
15013;DHT22;7603;49.432;11.418;2024-03-06T12:51:13;13.80;82.40
15013;DHT22;7603;49.432;11.418;2024-03-06T12:53:39;13.80;82.20
15013;DHT22;7603;49.432;11.418;2024-03-06T12:56:06;13.80;82.10
15013;DHT22;7603;49.432;11.418;2024-03-06T12:58:31;13.90;81.90
15013;DHT22;7603;49.432;11.418;2024-03-06T13:00:57;14.00;81.90
15013;DHT22;7603;49.432;11.418;2024-03-06T13:03:24;14.00;81.30
15013;DHT22;7603;49.432;11.418;2024-03-06T13:05:49;14.10;81.00
15013;DHT22;7603;49.432;11.418;2024-03-06T13:08:15;14.20;81.00
15013;DHT22;7603;49.432;11.418;2024-03-06T13:10:42;14.20;81.00
15013;DHT22;7603;49.432;11.418;2024-03-06T13:13:08;14.10;81.10
15013;DHT22;7603;49.432;11.418;2024-03-06T13:15:34;14.00;80.80
15013;DHT22;7603;49.432;11.418;2024-03-06T13:18:00;13.90;80.90
15013;DHT22;7603;49.432;11.418;2024-03-06T13:20:31;13.80;81.40
15013;DHT22;7603;49.432;11.418;2024-03-06T13:22:57;13.60;81.30
15013;DHT22;7603;49.432;11.418;2024-03-06T13:25:23;13.60;82.00
15013;DHT22;7603;49.432;11.418;2024-03-06T13:27:50;13.60;82.20
15013;DHT22;7603;49.432;11.418;2024-03-06T13:30:17;13.60;82.20
15013;DHT22;7603;49.432;11.418;2024-03-06T13:32:43;13.90;82.20
15013;DHT22;7603;49.432;11.418;2024-03-06T13:35:11;14.10;81.70
15013;DHT22;7603;49.432;11.418;2024-03-06T13:37:42;14.30;81.20
15013;DHT22;7603;49.432;11.418;2024-03-06T13:40:09;14.70;80.20
15013;DHT22;7603;49.432;11.418;2024-03-06T13:42:36;15.00;79.50
15013;DHT22;7603;49.432;11.418;2024-03-06T13:45:03;15.20;79.10
15013;DHT22;7603;49.432;11.418;2024-03-06T13:47:29;15.30;78.00
15013;DHT22;7603;49.432;11.418;2024-03-06T13:49:55;15.30;76.60
15013;DHT22;7603;49.432;11.418;2024-03-06T13:52:21;15.20;76.30
15013;DHT22;7603;49.432;11.418;2024-03-06T13:54:46;15.10;76.00
15013;DHT22;7603;49.432;11.418;2024-03-06T13:57:13;15.00;76.20
15013;DHT22;7603;49.432;11.418;2024-03-06T13:59:39;14.80;76.80
15013;DHT22;7603;49.432;11.418;2024-03-06T14:02:06;14.50;77.10
15013;DHT22;7603;49.432;11.418;2024-03-06T14:04:32;14.40;77.90
15013;DHT22;7603;49.432;11.418;2024-03-06T14:06:58;14.20;78.30
15013;DHT22;7603;49.432;11.418;2024-03-06T14:09:24;14.00;78.70
15013;DHT22;7603;49.432;11.418;2024-03-06T14:11:51;13.80;79.50
15013;DHT22;7603;49.432;11.418;2024-03-06T14:14:17;13.70;79.10
15013;DHT22;7603;49.432;11.418;2024-03-06T14:16:43;13.70;78.20
15013;DHT22;7603;49.432;11.418;2024-03-06T14:19:09;13.70;77.60
15013;DHT22;7603;49.432;11.418;2024-03-06T14:21:35;13.70;77.70
15013;DHT22;7603;49.432;11.418;2024-03-06T14:24:01;13.80;77.20
15013;DHT22;7603;49.432;11.418;2024-03-06T14:26:31;13.80;77.30
15013;DHT22;7603;49.432;11.418;2024-03-06T14:28:58;13.80;76.80
15013;DHT22;7603;49.432;11.418;2024-03-06T14:31:24;13.80;76.80
15013;DHT22;7603;49.432;11.418;2024-03-06T14:33:49;13.80;76.60
15013;DHT22;7603;49.432;11.418;2024-03-06T14:36:16;13.70;76.80
15013;DHT22;7603;49.432;11.418;2024-03-06T14:38:42;13.70;76.10
15013;DHT22;7603;49.432;11.418;2024-03-06T14:41:09;13.60;76.10
15013;DHT22;7603;49.432;11.418;2024-03-06T14:43:35;13.50;76.50
15013;DHT22;7603;49.432;11.418;2024-03-06T14:46:06;13.30;76.90
15013;DHT22;7603;49.432;11.418;2024-03-06T14:48:33;13.20;77.60
15013;DHT22;7603;49.432;11.418;2024-03-06T14:51:00;13.10;78.30
15013;DHT22;7603;49.432;11.418;2024-03-06T14:53:25;13.10;79.00
15013;DHT22;7603;49.432;11.418;2024-03-06T14:55:51;13.00;79.00
15013;DHT22;7603;49.432;11.418;2024-03-06T14:58:16;12.90;79.40
15013;DHT22;7603;49.432;11.418;2024-03-06T15:00:42;12.90;79.60
15013;DHT22;7603;49.432;11.418;2024-03-06T15:03:08;12.80;79.80
15013;DHT22;7603;49.432;11.418;2024-03-06T15:05:35;12.70;80.30
15013;DHT22;7603;49.432;11.418;2024-03-06T15:08:01;12.60;80.70
15013;DHT22;7603;49.432;11.418;2024-03-06T15:10:30;12.50;81.30
15013;DHT22;7603;49.432;11.418;2024-03-06T15:12:59;12.50;81.40
15013;DHT22;7603;49.432;11.418;2024-03-06T15:15:25;12.40;81.90
15013;DHT22;7603;49.432;11.418;2024-03-06T15:17:51;12.30;82.20
15013;DHT22;7603;49.432;11.418;2024-03-06T15:20:16;12.30;82.30
15013;DHT22;7603;49.432;11.418;2024-03-06T15:22:43;12.30;82.60
15013;DHT22;7603;49.432;11.418;2024-03-06T15:25:13;12.30;82.90
15013;DHT22;7603;49.432;11.418;2024-03-06T15:27:39;12.30;83.50
15013;DHT22;7603;49.432;11.418;2024-03-06T15:30:06;12.20;83.00
15013;DHT22;7603;49.432;11.418;2024-03-06T15:32:36;12.20;83.20
15013;DHT22;7603;49.432;11.418;2024-03-06T15:35:02;12.10;83.50
15013;DHT22;7603;49.432;11.418;2024-03-06T15:37:29;12.10;83.50
15013;DHT22;7603;49.432;11.418;2024-03-06T15:39:56;12.10;83.80
15013;DHT22;7603;49.432;11.418;2024-03-06T15:42:22;12.10;84.40
15013;DHT22;7603;49.432;11.418;2024-03-06T15:44:51;12.20;84.40
15013;DHT22;7603;49.432;11.418;2024-03-06T15:47:18;12.20;84.50